Time;durP1;ratioP1;P1;durP2;ratioP2;P2;SDS_P1;SDS_P2;PMS_P1;PMS_P2;Temp;Humidity;BMP_temperature;BMP_pressure;BME280_temperature;BME280_humidity;BME280_pressure;Samples;Min_cycle;Max_cycle;Signal;HPM_P1;HPM_P2
2022/10/09 00:00:11;;;;;;;6.53;4.35;;;;;;;10.28;40.52;102168.28;5048632;28;20037;-73
2022/10/09 00:02:39;;;;;;;6.25;4.70;;;;;;;10.24;40.57;102163.97;5048812;28;20505;-73
2022/10/09 00:05:07;;;;;;;6.78;4.32;;;;;;;10.22;40.68;102163.22;5046351;28;20098;-73
2022/10/09 00:07:35;;;;;;;7.68;4.43;;;;;;;10.20;41.04;102166.06;5049607;28;20052;-73
2022/10/09 00:10:04;;;;;;;5.80;4.20;;;;;;;10.18;40.69;102170.75;5047427;28;20040;-73
2022/10/09 00:12:32;;;;;;;7.07;4.13;;;;;;;10.15;40.92;102173.66;5047657;28;20058;-74
2022/10/09 00:15:01;;;;;;;6.90;3.90;;;;;;;10.15;40.83;102170.91;5047959;28;20048;-73
2022/10/09 00:17:29;;;;;;;6.60;4.20;;;;;;;10.10;40.91;102172.22;5048662;28;20147;-73
2022/10/09 00:19:57;;;;;;;6.28;4.03;;;;;;;10.10;40.83;102174.94;5047889;28;20304;-73
2022/10/09 00:22:26;;;;;;;7.40;4.32;;;;;;;10.05;40.75;102167.06;5048405;28;20037;-73
2022/10/09 00:24:54;;;;;;;5.97;4.40;;;;;;;10.02;40.74;102161.78;5044866;28;20567;-73
2022/10/09 00:27:22;;;;;;;7.85;4.10;;;;;;;10.01;41.08;102168.22;5048275;28;20045;-73
2022/10/09 00:29:51;;;;;;;4.88;3.80;;;;;;;9.98;40.90;102173.03;5047396;28;20493;-73
2022/10/09 00:32:20;;;;;;;6.65;4.45;;;;;;;9.99;41.03;102172.03;5034730;28;20049;-73
2022/10/09 00:34:48;;;;;;;7.07;4.18;;;;;;;9.94;41.05;102163.25;5046167;28;20064;-73
2022/10/09 00:37:16;;;;;;;6.57;3.88;;;;;;;9.93;41.11;102167.84;5048868;28;20048;-73
2022/10/09 00:39:44;;;;;;;5.75;3.80;;;;;;;9.91;40.96;102161.56;5049047;28;20064;-73
2022/10/09 00:42:12;;;;;;;7.60;4.40;;;;;;;9.90;40.92;102157.09;5047080;28;20440;-73
2022/10/09 00:44:56;;;;;;;6.38;4.10;;;;;;;9.91;41.59;102157.97;5048629;28;20103;-73
2022/10/09 00:47:30;;;;;;;7.60;4.10;;;;;;;9.88;41.49;102156.31;5048601;28;20063;-73
2022/10/09 00:50:07;;;;;;;6.30;4.13;;;;;;;9.87;41.52;102153.69;5049458;28;20060;-73
2022/10/09 00:52:36;;;;;;;5.85;4.03;;;;;;;9.83;41.20;102161.19;5019595;28;20505;-72
2022/10/09 00:55:07;;;;;;;6.65;3.97;;;;;;;9.83;40.93;102161.19;5048755;28;20560;-73
2022/10/09 00:57:38;;;;;;;7.75;4.32;;;;;;;9.83;41.18;102158.44;5049007;28;20044;-73
2022/10/09 01:00:09;;;;;;;5.95;3.95;;;;;;;9.82;41.16;102159.47;5048012;28;20041;-73
2022/10/09 01:02:39;;;;;;;6.50;3.42;;;;;;;9.82;40.99;102164.94;5048666;28;20401;-73
2022/10/09 01:05:09;;;;;;;6.60;3.67;;;;;;;9.80;40.97;102165.03;5045744;28;20045;-73
2022/10/09 01:07:47;;;;;;;6.63;3.90;;;;;;;9.79;41.42;102162.38;5049100;28;20456;-73
2022/10/09 01:10:27;;;;;;;4.90;3.65;;;;;;;9.78;41.81;102171.53;5046704;28;20068;-73
2022/10/09 01:13:04;;;;;;;7.15;4.20;;;;;;;9.76;41.33;102168.03;5048210;28;20068;-73
2022/10/09 01:15:38;;;;;;;6.10;3.85;;;;;;;9.76;41.54;102170.75;5047201;28;20064;-73
2022/10/09 01:18:12;;;;;;;7.10;4.30;;;;;;;9.74;41.57;102170.00;5049073;28;20102;-74
2022/10/09 01:20:47;;;;;;;6.15;4.00;;;;;;;9.71;41.54;102165.59;5039864;28;20068;-73
2022/10/09 01:23:41;;;;;;;8.35;4.25;;;;;;;9.69;41.62;102166.66;5048726;28;20051;-72
2022/10/09 01:26:18;;;;;;;5.65;3.63;;;;;;;9.67;41.49;102164.03;5036729;28;20041;-73
2022/10/09 01:28:52;;;;;;;6.13;3.70;;;;;;;9.65;41.64;102162.38;5048598;28;20055;-74
2022/10/09 01:31:23;;;;;;;5.78;3.67;;;;;;;9.60;41.01;102159.03;5047506;28;20041;-73
2022/10/09 01:33:51;;;;;;;5.80;3.80;;;;;;;9.58;40.99;102161.84;5045653;28;20037;-73
2022/10/09 01:36:21;;;;;;;5.63;3.78;;;;;;;9.58;41.27;102161.84;5041036;28;20049;-73
2022/10/09 01:38:50;;;;;;;6.53;3.72;;;;;;;9.55;41.24;102156.59;5046568;28;20037;-73
2022/10/09 01:41:18;;;;;;;5.68;3.53;;;;;;;9.54;40.98;102153.97;5047239;28;20678;-72
2022/10/09 01:43:47;;;;;;;7.40;3.80;;;;;;;9.53;41.02;102147.63;5047796;28;20536;-73
2022/10/09 01:46:21;;;;;;;5.97;3.92;;;;;;;9.52;41.43;102153.16;5044082;28;20037;-73
2022/10/09 01:48:57;;;;;;;4.82;3.53;;;;;;;9.49;41.61;102154.28;5044153;28;20052;-73
2022/10/09 01:51:30;;;;;;;5.75;3.58;;;;;;;9.47;41.39;102150.75;5041785;28;20045;-73
2022/10/09 01:54:04;;;;;;;5.13;3.33;;;;;;;9.45;41.42;102150.84;5041462;28;20119;-73
2022/10/09 01:56:36;;;;;;;5.95;3.42;;;;;;;9.44;41.59;102143.59;5047052;28;20709;-73
2022/10/09 01:59:11;;;;;;;6.07;3.90;;;;;;;9.45;41.66;102144.50;5048783;28;20068;-73
2022/10/09 02:01:44;;;;;;;5.72;3.78;;;;;;;9.40;41.35;102139.31;5047243;28;20080;-73
2022/10/09 02:04:14;;;;;;;8.43;3.97;;;;;;;9.39;41.33;102134.81;5047963;28;20045;-75
2022/10/09 02:06:44;;;;;;;5.72;3.72;;;;;;;9.39;41.37;102136.69;5048064;28;20231;-75
2022/10/09 02:09:16;;;;;;;6.53;3.50;;;;;;;9.38;41.26;102127.59;5048909;28;20567;-75
2022/10/09 02:11:51;;;;;;;7.88;3.97;;;;;;;9.36;41.72;102129.50;5047726;28;20570;-75
2022/10/09 02:14:21;;;;;;;5.90;3.50;;;;;;;9.36;41.71;102134.97;5044158;28;20115;-75
2022/10/09 02:16:59;;;;;;;6.47;4.28;;;;;;;9.35;42.15;102126.88;5028152;28;20049;-75
2022/10/09 02:19:31;;;;;;;5.20;3.70;;;;;;;9.33;41.63;102124.22;5028712;28;20037;-75
2022/10/09 02:22:05;;;;;;;5.18;3.08;;;;;;;9.30;41.84;102123.56;5047051;28;20037;-75
2022/10/09 02:24:34;;;;;;;6.80;3.92;;;;;;;9.28;41.41;102120.03;5052440;28;20537;-75
2022/10/09 02:27:02;;;;;;;5.75;3.42;;;;;;;9.28;41.27;102120.03;5050066;28;20045;-75
2022/10/09 02:29:32;;;;;;;4.65;3.40;;;;;;;9.27;41.27;102116.41;5052079;28;20132;-75
2022/10/09 02:32:00;;;;;;;6.15;3.55;;;;;;;9.25;41.30;102123.81;5025169;28;20552;-75
2022/10/09 02:34:28;;;;;;;5.85;3.70;;;;;;;9.23;41.53;102116.72;5052586;28;20037;-75
2022/10/09 02:36:55;;;;;;;7.95;3.63;;;;;;;9.24;41.39;102113.03;5051492;28;20056;-75
2022/10/09 02:39:23;;;;;;;6.03;3.33;;;;;;;9.21;41.22;102115.94;5052567;28;20048;-75
2022/10/09 02:41:51;;;;;;;5.70;3.75;;;;;;;9.19;41.19;102116.03;5051013;28;20048;-75
2022/10/09 02:44:19;;;;;;;5.70;3.72;;;;;;;9.18;41.18;102118.84;5051930;28;20468;-76
2022/10/09 02:46:51;;;;;;;5.32;3.08;;;;;;;9.18;41.19;102121.56;5050388;28;20052;-75
2022/10/09 02:49:19;;;;;;;6.40;3.45;;;;;;;9.15;41.57;102117.19;5052584;28;20048;-75
2022/10/09 02:51:46;;;;;;;5.50;3.50;;;;;;;9.14;41.51;102133.69;5051152;28;20085;-75
2022/10/09 02:54:14;;;;;;;6.07;3.65;;;;;;;9.12;41.39;102119.22;5051991;28;20432;-75
2022/10/09 02:56:42;;;;;;;5.43;3.78;;;;;;;9.09;41.23;102118.44;5049652;28;20044;-75
2022/10/09 02:59:10;;;;;;;5.03;3.50;;;;;;;9.07;41.50;102117.69;5034297;28;20045;-75
2022/10/09 03:01:38;;;;;;;5.70;4.03;;;;;;;9.06;41.33;102121.38;5046480;28;20046;-75
2022/10/09 03:04:08;;;;;;;5.63;3.33;;;;;;;9.05;41.72;102111.41;5032107;28;20045;-75
2022/10/09 03:06:38;;;;;;;5.72;3.40;;;;;;;9.01;41.44;102118.03;5031326;28;20061;-75
2022/10/09 03:09:05;;;;;;;5.97;3.42;;;;;;;9.00;41.50;102118.16;5014487;28;20119;-75
2022/10/09 03:11:33;;;;;;;6.40;4.25;;;;;;;8.95;41.76;102121.13;5051337;28;20037;-75
2022/10/09 03:14:01;;;;;;;6.68;3.33;;;;;;;8.94;41.64;102116.66;5046891;28;20049;-75
2022/10/09 03:16:29;;;;;;;4.75;3.20;;;;;;;8.92;41.53;102114.97;5041100;28;20051;-75
2022/10/09 03:18:58;;;;;;;5.95;3.40;;;;;;;8.91;41.50;102121.44;5051547;28;20318;-75
2022/10/09 03:21:28;;;;;;;7.93;3.50;;;;;;;8.90;41.79;102111.47;5050824;28;20063;-75
2022/10/09 03:23:56;;;;;;;5.45;3.58;;;;;;;8.88;41.79;102121.59;5051693;28;20052;-75
2022/10/09 03:26:26;;;;;;;4.80;3.50;;;;;;;8.87;41.85;102122.56;5028385;28;20053;-75
2022/10/09 03:28:55;;;;;;;5.45;3.70;;;;;;;8.83;41.57;102113.72;5049092;28;20049;-75
2022/10/09 03:31:25;;;;;;;7.05;3.90;;;;;;;8.82;41.89;102111.94;5049577;28;20053;-75
2022/10/09 03:34:13;;;;;;;5.38;3.65;;;;;;;8.78;41.72;102117.66;5038742;28;20037;-75
2022/10/09 03:36:42;;;;;;;6.00;3.35;;;;;;;8.77;41.55;102116.78;5049923;28;20473;-75
2022/10/09 03:39:10;;;;;;;4.72;3.38;;;;;;;8.75;41.69;102112.41;5049587;28;20561;-75
2022/10/09 03:41:38;;;;;;;5.60;3.60;;;;;;;8.72;41.86;102110.72;5049601;28;20575;-75
2022/10/09 03:44:06;;;;;;;7.25;3.90;;;;;;;8.70;41.66;102107.22;5050006;28;20124;-75
2022/10/09 03:46:33;;;;;;;5.60;3.40;;;;;;;8.67;41.79;102104.69;5049797;28;20088;-75
2022/10/09 03:49:01;;;;;;;5.43;3.50;;;;;;;8.66;41.85;102100.19;5049373;28;20399;-75
2022/10/09 03:51:29;;;;;;;6.30;3.90;;;;;;;8.65;41.70;102106.63;5047502;28;20049;-75
2022/10/09 03:53:58;;;;;;;5.32;3.55;;;;;;;8.64;41.83;102102.13;5032484;28;20049;-75
2022/10/09 03:56:26;;;;;;;6.72;3.80;;;;;;;8.60;41.74;102100.53;5049383;28;20106;-75
2022/10/09 03:58:54;;;;;;;5.57;3.70;;;;;;;8.57;41.97;102096.16;5050217;28;20087;-75
2022/10/09 04:01:21;;;;;;;5.78;3.53;;;;;;;8.56;41.81;102107.16;5048878;28;20114;-75
2022/10/09 04:03:49;;;;;;;6.45;3.45;;;;;;;8.53;41.74;102104.59;5050170;28;20367;-75
2022/10/09 04:06:17;;;;;;;6.40;3.35;;;;;;;8.51;41.95;102104.69;5049404;28;20041;-75
2022/10/09 04:08:45;;;;;;;5.53;3.35;;;;;;;8.48;42.11;102104.88;5049781;28;20275;-75
2022/10/09 04:11:14;;;;;;;4.93;3.30;;;;;;;8.48;41.99;102110.34;5048656;28;20433;-75
2022/10/09 04:13:42;;;;;;;5.85;3.42;;;;;;;8.44;42.06;102111.47;5050374;28;20398;-76
2022/10/09 04:16:11;;;;;;;6.32;3.50;;;;;;;8.41;41.90;102111.69;5044927;28;20103;-75
2022/10/09 04:18:40;;;;;;;5.28;3.22;;;;;;;8.40;42.06;102106.31;5044369;28;20132;-75
2022/10/09 04:21:08;;;;;;;6.90;3.53;;;;;;;8.37;42.22;102118.28;5048805;28;20041;-75
2022/10/09 04:23:36;;;;;;;5.72;3.33;;;;;;;8.34;42.23;102116.59;5049925;28;20037;-75
2022/10/09 04:26:03;;;;;;;5.50;3.40;;;;;;;8.33;42.10;102108.53;5048577;28;20118;-75
2022/10/09 04:28:33;;;;;;;6.57;3.53;;;;;;;8.32;42.52;102109.50;5047805;28;20412;-74
2022/10/09 04:31:01;;;;;;;5.88;3.35;;;;;;;8.28;42.16;102114.22;5046131;28;20030;-75
2022/10/09 04:33:29;;;;;;;5.75;3.22;;;;;;;8.26;42.27;102107.97;5031369;28;20068;-75
2022/10/09 04:35:57;;;;;;;7.20;3.50;;;;;;;8.25;42.17;102110.81;5048800;28;20045;-75
2022/10/09 04:38:25;;;;;;;6.13;3.53;;;;;;;8.24;42.08;102104.47;5049488;28;20465;-75
2022/10/09 04:40:57;;;;;;;7.38;3.40;;;;;;;8.23;42.69;102097.28;5044024;28;20052;-75
2022/10/09 04:43:25;;;;;;;6.57;3.58;;;;;;;8.20;42.20;102102.00;5046776;28;20414;-75
2022/10/09 04:45:54;;;;;;;5.32;3.40;;;;;;;8.20;42.37;102097.44;5046722;28;20041;-75
2022/10/09 04:48:22;;;;;;;5.10;3.08;;;;;;;8.19;42.10;102092.06;5049271;28;20056;-75
2022/10/09 04:50:50;;;;;;;5.60;3.25;;;;;;;8.18;42.52;102084.84;5048566;28;20094;-75
2022/10/09 04:53:18;;;;;;;4.50;3.15;;;;;;;8.16;42.33;102087.69;5052490;28;20144;-75
2022/10/09 04:55:46;;;;;;;5.32;3.10;;;;;;;8.15;42.27;102090.50;5047834;28;20041;-75
2022/10/09 04:58:14;;;;;;;5.10;3.40;;;;;;;8.15;42.46;102085.94;5049281;28;20045;-75
2022/10/09 05:00:43;;;;;;;6.10;3.28;;;;;;;8.15;42.38;102093.22;5047052;28;20501;-75
2022/10/09 05:03:12;;;;;;;5.13;3.08;;;;;;;8.16;42.48;102086.81;5047468;28;20045;-75
2022/10/09 05:05:40;;;;;;;5.20;3.10;;;;;;;8.12;42.28;102083.34;5048333;28;20103;-75
2022/10/09 05:08:08;;;;;;;4.88;3.17;;;;;;;8.12;42.19;102083.34;5049314;28;20489;-75
2022/10/09 05:10:36;;;;;;;6.28;3.10;;;;;;;8.13;42.32;102085.13;5048114;28;20045;-75
2022/10/09 05:13:04;;;;;;;4.57;3.38;;;;;;;8.12;42.40;102083.34;5048176;28;20044;-75
2022/10/09 05:15:35;;;;;;;6.00;2.85;;;;;;;8.12;42.03;102080.59;5048272;28;20053;-75
2022/10/09 05:18:03;;;;;;;6.07;3.42;;;;;;;8.11;42.19;102075.22;5049345;28;20381;-75
2022/10/09 05:20:33;;;;;;;4.70;3.38;;;;;;;8.12;42.13;102077.00;5047428;28;20049;-75
2022/10/09 05:23:00;;;;;;;5.00;3.08;;;;;;;8.10;42.10;102081.66;5049211;28;20063;-75
2022/10/09 05:25:28;;;;;;;6.50;3.40;;;;;;;8.09;42.16;102083.53;5047928;28;20184;-75
2022/10/09 05:27:56;;;;;;;4.45;3.08;;;;;;;8.09;41.94;102072.63;5049412;28;20053;-75
2022/10/09 05:30:24;;;;;;;6.85;3.45;;;;;;;8.07;42.02;102077.28;5047598;28;20057;-75
2022/10/09 05:32:51;;;;;;;5.70;3.38;;;;;;;8.06;42.21;102074.63;5048869;28;20124;-75
2022/10/09 05:35:19;;;;;;;6.45;3.40;;;;;;;8.06;41.91;102072.78;5047892;28;20441;-75
2022/10/09 05:37:48;;;;;;;4.82;3.00;;;;;;;8.06;41.96;102069.19;5047381;28;20421;-77
2022/10/09 05:40:16;;;;;;;4.82;3.25;;;;;;;8.03;42.06;102078.41;5046057;28;20037;-76
2022/10/09 05:42:44;;;;;;;4.60;3.47;;;;;;;8.02;42.11;102076.66;5043234;28;20410;-75
2022/10/09 05:45:12;;;;;;;4.93;3.30;;;;;;;8.00;41.90;102073.16;5047066;28;20033;-76
2022/10/09 05:47:40;;;;;;;4.55;3.22;;;;;;;8.01;41.97;102074.03;5043485;28;20530;-77
2022/10/09 05:50:11;;;;;;;5.00;3.38;;;;;;;7.99;41.88;102071.38;5034293;28;20410;-76
2022/10/09 05:52:39;;;;;;;6.00;3.35;;;;;;;7.95;42.27;102073.41;5048313;28;20055;-78
2022/10/09 05:55:09;;;;;;;5.20;3.30;;;;;;;7.97;42.15;102078.78;5042680;28;20048;-76
2022/10/09 05:57:37;;;;;;;5.65;3.17;;;;;;;7.93;42.10;102078.06;5047179;28;20041;-74
2022/10/09 06:00:06;;;;;;;5.18;3.22;;;;;;;7.94;42.04;102076.19;5046553;28;20049;-77
2022/10/09 06:02:38;;;;;;;6.35;3.08;;;;;;;7.91;41.97;102071.84;5048086;28;20099;-77
2022/10/09 06:05:07;;;;;;;5.03;3.10;;;;;;;7.92;42.11;102083.63;5050587;28;20041;-77
2022/10/09 06:07:35;;;;;;;5.78;3.28;;;;;;;7.91;42.12;102079.13;5053537;28;20056;-76
2022/10/09 06:10:03;;;;;;;6.90;3.42;;;;;;;7.91;42.05;102079.13;5052707;28;20099;-76
2022/10/09 06:12:32;;;;;;;4.97;3.00;;;;;;;7.91;42.16;102080.00;5051948;28;20048;-76
2022/10/09 06:15:00;;;;;;;4.93;3.28;;;;;;;7.90;42.02;102075.53;5052208;28;20116;-76
2022/10/09 06:17:28;;;;;;;5.15;3.00;;;;;;;7.90;42.18;102082.81;5050772;28;20049;-76
2022/10/09 06:19:57;;;;;;;5.15;3.38;;;;;;;7.89;42.08;102076.47;5052378;28;20045;-74
2022/10/09 06:22:25;;;;;;;4.85;3.45;;;;;;;7.89;42.14;102087.38;5049576;28;20514;-75
2022/10/09 06:24:53;;;;;;;5.10;3.08;;;;;;;7.90;42.35;102080.97;5052596;28;20098;-75
2022/10/09 06:27:21;;;;;;;5.18;3.55;;;;;;;7.90;42.48;102089.16;5051470;28;20041;-75
2022/10/09 06:29:52;;;;;;;5.82;3.67;;;;;;;7.93;42.82;102085.34;5052218;28;20076;-75
2022/10/09 06:32:20;;;;;;;5.45;3.33;;;;;;;7.94;43.24;102084.38;5051880;28;20509;-70
2022/10/09 06:34:47;;;;;;;4.82;3.42;;;;;;;8.00;43.63;102094.06;5041574;28;20038;-70
2022/10/09 06:37:15;;;;;;;5.90;3.63;;;;;;;8.07;44.45;102088.19;5045634;28;20511;-71
2022/10/09 06:39:43;;;;;;;4.95;3.35;;;;;;;8.19;44.68;102090.22;5031862;28;20046;-71
2022/10/09 06:42:11;;;;;;;4.82;3.35;;;;;;;8.35;45.09;102090.19;5048974;28;20045;-72
2022/10/09 06:44:51;;;;;;;5.45;3.50;;;;;;;8.56;45.05;102085.34;5048722;28;20421;-70
2022/10/09 06:47:19;;;;;;;5.50;3.17;;;;;;;8.76;45.07;102085.00;5049189;28;20532;-69
2022/10/09 06:49:46;;;;;;;5.68;3.38;;;;;;;9.03;45.14;102090.63;5050599;28;20452;-68
2022/10/09 06:52:14;;;;;;;5.78;3.55;;;;;;;9.29;45.36;102097.22;5049875;28;20124;-69
2022/10/09 06:54:42;;;;;;;6.20;3.60;;;;;;;9.57;44.84;102090.91;5050291;28;20490;-69
2022/10/09 06:57:10;;;;;;;5.97;3.22;;;;;;;9.85;44.71;102085.41;5049797;28;20490;-69
2022/10/09 06:59:39;;;;;;;5.68;3.40;;;;;;;10.15;44.28;102097.06;5050734;28;20563;-70
2022/10/09 07:02:08;;;;;;;5.43;3.47;;;;;;;10.44;43.88;102084.19;5049926;28;20441;-70
2022/10/09 07:04:36;;;;;;;6.20;3.10;;;;;;;10.72;43.92;102090.56;5048208;28;20033;-70
2022/10/09 07:07:04;;;;;;;6.68;3.63;;;;;;;11.01;43.67;102089.41;5047740;28;20119;-69
2022/10/09 07:09:32;;;;;;;4.80;3.08;;;;;;;11.29;43.62;102091.97;5050746;28;20106;-69
2022/10/09 07:11:59;;;;;;;5.78;3.20;;;;;;;11.55;42.97;102089.22;5048926;28;20095;-70
2022/10/09 07:14:29;;;;;;;5.40;3.50;;;;;;;11.85;42.52;102087.00;5048234;28;20052;-70
2022/10/09 07:16:57;;;;;;;5.15;3.20;;;;;;;12.11;42.01;102096.03;5049602;28;20506;-69
2022/10/09 07:19:27;;;;;;;5.35;3.10;;;;;;;12.39;41.61;102086.59;5050841;28;20041;-70
2022/10/09 07:21:54;;;;;;;4.95;3.13;;;;;;;12.62;41.22;102085.75;5046754;28;20068;-69
2022/10/09 07:24:24;;;;;;;4.85;3.25;;;;;;;12.85;41.26;102086.72;5049136;28;20045;-69
2022/10/09 07:26:54;;;;;;;4.90;3.40;;;;;;;13.08;41.06;102084.91;5049241;28;20049;-69
2022/10/09 07:29:22;;;;;;;5.13;3.03;;;;;;;13.30;40.36;102087.69;5050443;28;20045;-70
2022/10/09 07:31:49;;;;;;;6.07;3.10;;;;;;;13.49;39.45;102090.75;5047198;28;20053;-69
2022/10/09 07:34:20;;;;;;;6.43;2.90;;;;;;;13.68;39.49;102092.03;5049644;28;20124;-69
2022/10/09 07:36:49;;;;;;;4.65;3.08;;;;;;;13.82;38.45;102089.91;5049265;28;20102;-69
2022/10/09 07:39:18;;;;;;;4.38;2.85;;;;;;;13.95;38.48;102082.38;5049636;28;20452;-69
2022/10/09 07:41:46;;;;;;;3.88;2.88;;;;;;;14.07;38.30;102088.75;5047949;28;20052;-69
2022/10/09 07:44:14;;;;;;;4.40;2.30;;;;;;;14.21;38.01;102087.59;5031200;28;20052;-69
2022/10/09 07:46:42;;;;;;;5.95;2.80;;;;;;;14.32;37.65;102087.59;5050094;28;20114;-70
2022/10/09 07:49:11;;;;;;;5.07;2.50;;;;;;;14.42;37.33;102074.78;5049067;28;20711;-70
2022/10/09 07:51:38;;;;;;;3.90;2.30;;;;;;;14.53;37.67;102071.13;5045043;28;20045;-70
2022/10/09 07:54:10;;;;;;;5.65;2.83;;;;;;;14.62;36.15;102070.34;5043660;28;20049;-69
2022/10/09 07:56:38;;;;;;;5.32;3.05;;;;;;;14.64;36.74;102062.84;5047540;28;20528;-70
2022/10/09 07:59:08;;;;;;;4.57;2.72;;;;;;;14.66;35.99;102063.59;5048156;28;20494;-70
2022/10/09 08:01:36;;;;;;;4.60;2.50;;;;;;;14.65;36.04;102067.34;5044115;28;20049;-69
2022/10/09 08:04:04;;;;;;;5.05;3.03;;;;;;;14.59;35.64;102060.50;5072564;22;20045;-71
2022/10/09 08:06:33;;;;;;;4.72;2.55;;;;;;;14.55;35.60;102061.75;5070308;28;20052;-70
2022/10/09 08:09:03;;;;;;;5.78;2.60;;;;;;;14.51;36.07;102060.28;5089540;28;20549;-70
2022/10/09 08:11:34;;;;;;;4.93;2.28;;;;;;;14.44;36.12;102058.09;5088160;28;20044;-70
2022/10/09 08:14:01;;;;;;;4.97;2.55;;;;;;;14.36;35.87;102061.50;5088823;28;20115;-70
2022/10/09 08:16:32;;;;;;;4.25;2.15;;;;;;;14.32;36.14;102060.03;5087957;28;20373;-70
2022/10/09 08:19:01;;;;;;;3.75;2.25;;;;;;;14.26;35.96;102055.06;5088850;28;20040;-70
2022/10/09 08:21:31;;;;;;;6.28;2.38;;;;;;;14.21;36.34;102063.69;5070425;28;20462;-68
2022/10/09 08:23:59;;;;;;;4.10;2.50;;;;;;;14.17;36.74;102062.22;5088626;28;20064;-68
2022/10/09 08:26:33;;;;;;;4.03;2.50;;;;;;;14.16;36.82;102068.72;5088644;28;20040;-69
2022/10/09 08:29:03;;;;;;;4.05;2.33;;;;;;;14.14;37.17;102069.84;5070599;28;20214;-69
2022/10/09 08:31:32;;;;;;;5.07;2.20;;;;;;;14.12;36.97;102067.22;5088086;28;20051;-68
2022/10/09 08:34:02;;;;;;;5.40;2.00;;;;;;;14.14;37.52;102062.47;5067892;28;20052;-71
2022/10/09 08:36:31;;;;;;;3.47;2.00;;;;;;;14.16;37.19;102062.34;5085057;28;20439;-71
2022/10/09 08:38:59;;;;;;;3.13;1.85;;;;;;;14.18;37.09;102058.47;5089670;28;20055;-71
2022/10/09 08:41:43;;;;;;;4.95;2.20;;;;;;;14.24;37.29;102046.91;5086762;28;20036;-70
2022/10/09 08:44:16;;;;;;;3.55;1.85;;;;;;;14.28;37.46;102050.28;5088624;28;20062;-71
2022/10/09 08:46:53;;;;;;;4.47;1.90;;;;;;;14.33;36.97;102045.28;5087443;28;20048;-69
2022/10/09 08:49:27;;;;;;;4.35;2.05;;;;;;;14.38;37.21;102043.00;5075763;28;20048;-70
2022/10/09 08:51:58;;;;;;;3.25;1.90;;;;;;;14.40;36.93;102046.50;5075176;28;20048;-70
2022/10/09 08:54:33;;;;;;;3.33;2.05;;;;;;;14.47;36.17;102052.34;5083086;28;20044;-70
2022/10/09 08:57:04;;;;;;;4.43;2.20;;;;;;;14.48;36.89;102044.00;5088099;28;20140;-70
2022/10/09 08:59:32;;;;;;;4.85;2.45;;;;;;;14.45;36.68;102035.06;5088818;28;20051;-70
2022/10/09 09:02:08;;;;;;;3.95;1.85;;;;;;;14.51;36.59;102031.84;5069162;28;20051;-71
2022/10/09 09:04:46;;;;;;;4.07;1.98;;;;;;;14.49;36.35;102031.97;5085761;28;20100;-71
2022/10/09 09:07:29;;;;;;;3.25;1.80;;;;;;;14.51;36.76;102027.22;5087336;28;20055;-70
2022/10/09 09:10:02;;;;;;;3.97;1.95;;;;;;;14.51;36.64;102023.59;5088982;28;20123;-70
2022/10/09 09:12:43;;;;;;;3.58;1.80;;;;;;;14.53;36.21;102029.81;5084971;28;20518;-72
2022/10/09 09:15:28;;;;;;;4.88;1.85;;;;;;;14.52;36.35;102025.34;5087986;28;20040;-70
2022/10/09 09:18:06;;;;;;;3.83;1.80;;;;;;;14.54;36.46;102020.53;5077099;28;20058;-70
2022/10/09 09:20:43;;;;;;;3.92;1.88;;;;;;;14.57;36.17;102023.91;5069228;28;20127;-71
2022/10/09 09:23:15;;;;;;;3.40;1.65;;;;;;;14.61;37.11;102003.34;5088051;28;20130;-69
2022/10/09 09:25:45;;;;;;;3.10;1.90;;;;;;;14.65;37.47;102012.25;5087193;28;20047;-68
2022/10/09 09:28:20;;;;;;;3.42;1.70;;;;;;;14.76;37.10;102003.91;5070580;28;20059;-70
2022/10/09 09:30:51;;;;;;;4.28;1.98;;;;;;;14.84;37.19;102006.00;5074543;28;20048;-69
2022/10/09 09:33:31;;;;;;;6.05;1.90;;;;;;;14.93;36.63;101996.94;5087689;28;20106;-69
2022/10/09 09:36:09;;;;;;;3.05;1.52;;;;;;;15.01;36.95;101997.97;5078881;28;20028;-70
2022/10/09 09:38:37;;;;;;;3.83;1.60;;;;;;;15.06;36.68;101998.44;5082567;28;20041;-71
2022/10/09 09:41:27;;;;;;;4.75;2.13;;;;;;;15.18;36.52;101996.47;5085590;28;20044;-71
2022/10/09 09:43:57;;;;;;;3.85;2.08;;;;;;;15.27;36.33;101979.09;5087529;28;20101;-70
2022/10/09 09:46:29;;;;;;;2.53;1.63;;;;;;;15.37;36.46;101981.94;5086576;28;20048;-70
2022/10/09 09:48:57;;;;;;;4.68;1.75;;;;;;;15.41;36.22;101980.66;5088380;28;20056;-71
2022/10/09 09:51:27;;;;;;;4.47;1.80;;;;;;;15.52;36.16;101978.66;5087203;28;20044;-70
2022/10/09 09:53:59;;;;;;;2.80;1.50;;;;;;;15.57;36.55;101972.75;5076586;28;20131;-69
2022/10/09 09:56:42;;;;;;;3.78;1.90;;;;;;;15.66;35.63;101976.56;5086818;28;21038;-70
2022/10/09 09:59:33;;;;;;;3.15;2.05;;;;;;;15.69;35.47;101968.84;5087275;28;20403;-71
2022/10/09 10:02:03;;;;;;;4.05;1.85;;;;;;;15.77;35.53;101969.00;5087422;28;20576;-70
2022/10/09 10:04:32;;;;;;;3.30;1.73;;;;;;;15.80;35.64;101956.81;5085087;28;20125;-70
2022/10/09 10:07:00;;;;;;;4.25;1.85;;;;;;;15.85;35.02;101951.72;5086844;28;20097;-70
2022/10/09 10:09:28;;;;;;;4.63;2.00;;;;;;;15.86;35.64;101954.34;5088109;28;20113;-71
2022/10/09 10:11:58;;;;;;;3.00;1.42;;;;;;;15.93;35.50;101953.78;5086588;28;20097;-70
2022/10/09 10:14:26;;;;;;;4.05;2.03;;;;;;;15.96;35.66;101945.22;5074492;28;20048;-71
2022/10/09 10:16:58;;;;;;;3.70;1.50;;;;;;;16.02;34.87;101947.41;5086486;28;20519;-71
2022/10/09 10:19:33;;;;;;;2.63;1.40;;;;;;;16.07;35.60;101936.81;5070533;28;20048;-72
2022/10/09 10:22:05;;;;;;;3.40;1.77;;;;;;;16.10;35.67;101948.44;5087343;28;20050;-70
2022/10/09 10:24:37;;;;;;;2.40;1.60;;;;;;;16.20;35.16;101938.31;5087617;28;20051;-70
2022/10/09 10:27:13;;;;;;;3.30;1.60;;;;;;;16.24;34.21;101933.38;5087271;28;20041;-70
2022/10/09 10:29:46;;;;;;;2.70;1.50;;;;;;;16.30;34.40;101932.78;5074899;28;20452;-70
2022/10/09 10:32:21;;;;;;;3.75;1.60;;;;;;;16.33;34.27;101926.94;5073161;28;20048;-70
2022/10/09 10:34:53;;;;;;;3.05;1.63;;;;;;;16.37;34.42;101931.16;5087417;28;20455;-71
2022/10/09 10:37:31;;;;;;;3.28;1.67;;;;;;;16.37;32.76;101922.88;5086727;28;20093;-71
2022/10/09 10:40:04;;;;;;;2.53;1.40;;;;;;;16.40;34.24;101910.69;5087345;28;20048;-71
2022/10/09 10:42:42;;;;;;;2.63;1.52;;;;;;;16.45;33.91;101916.63;5081198;28;20052;-71
2022/10/09 10:45:15;;;;;;;3.17;1.50;;;;;;;16.44;33.75;101906.59;5090095;28;20566;-71
2022/10/09 10:47:50;;;;;;;3.35;1.50;;;;;;;16.48;33.50;101897.88;5091519;28;20050;-71
2022/10/09 10:50:20;;;;;;;3.50;1.38;;;;;;;16.48;33.82;101897.88;5090507;28;20048;-71
2022/10/09 10:53:01;;;;;;;3.10;1.45;;;;;;;16.54;33.19;101900.03;5091015;28;20766;-71
2022/10/09 10:55:48;;;;;;;3.10;1.33;;;;;;;16.58;33.64;101889.53;5090183;28;20067;-69
2022/10/09 10:58:25;;;;;;;2.67;1.30;;;;;;;16.63;33.59;101888.09;5078235;28;20613;-71
2022/10/09 11:01:06;;;;;;;2.95;1.70;;;;;;;16.67;33.92;101885.88;5090264;28;20119;-71
2022/10/09 11:03:50;;;;;;;2.83;1.27;;;;;;;16.74;32.68;101887.06;5090454;28;20043;-71
2022/10/09 11:06:25;;;;;;;4.50;1.67;;;;;;;16.77;32.97;101881.19;5076687;28;20047;-71
2022/10/09 11:09:09;;;;;;;2.80;1.20;;;;;;;16.82;32.54;101876.13;5090204;28;20539;-72
2022/10/09 11:11:43;;;;;;;3.20;1.50;;;;;;;16.81;32.82;101871.59;5089100;28;20130;-70
2022/10/09 11:14:28;;;;;;;3.25;1.33;;;;;;;16.87;32.14;101862.69;5090150;28;20469;-70
2022/10/09 11:17:05;;;;;;;3.67;1.40;;;;;;;16.89;32.62;101857.03;5088587;28;20404;-70
2022/10/09 11:19:57;;;;;;;3.90;1.70;;;;;;;16.88;31.78;101849.75;5079902;28;20040;-71
2022/10/09 11:22:49;;;;;;;1.90;1.17;;;;;;;16.90;32.44;101867.94;5089573;28;20044;-72
2022/10/09 11:25:28;;;;;;;3.03;1.40;;;;;;;16.94;32.30;101840.81;5071114;28;20121;-72
2022/10/09 11:28:01;;;;;;;3.80;1.40;;;;;;;16.98;33.01;101834.03;5090885;28;20040;-71
2022/10/09 11:30:37;;;;;;;2.35;1.30;;;;;;;17.05;32.52;101831.50;5088920;28;20505;-71
2022/10/09 11:33:12;;;;;;;3.35;1.33;;;;;;;17.12;32.34;101827.09;5090368;28;20048;-70
2022/10/09 11:35:48;;;;;;;2.80;1.30;;;;;;;17.15;31.98;101821.28;5080569;28;20037;-71
2022/10/09 11:38:26;;;;;;;3.40;1.30;;;;;;;17.22;31.38;101823.25;5083540;28;20036;-71
2022/10/09 11:40:55;;;;;;;2.20;1.30;;;;;;;17.25;32.42;101811.88;5089526;28;20040;-71
2022/10/09 11:43:52;;;;;;;2.80;1.20;;;;;;;17.32;31.61;101807.44;5089091;28;20405;-70
2022/10/09 11:46:29;;;;;;;3.20;1.30;;;;;;;17.39;31.61;101811.38;5089456;28;20067;-70